createdAt,value
2023-03-05T00:01:30.556Z,5.50
2023-03-05T00:03:57.800Z,3.70
2023-03-05T00:06:26.149Z,5.33
2023-03-05T00:08:53.615Z,3.97
2023-03-05T00:11:20.812Z,6.53
2023-03-05T00:13:47.784Z,10.07
2023-03-05T00:16:15.942Z,5.53
2023-03-05T00:18:43.278Z,8.50
2023-03-05T00:21:37.966Z,4.20
2023-03-05T00:24:16.785Z,3.60
2023-03-05T00:26:44.284Z,3.93
2023-03-05T00:29:13.074Z,4.97
2023-03-05T00:31:40.186Z,4.60
2023-03-05T00:34:09.118Z,3.17
2023-03-05T00:36:40.976Z,5.73
2023-03-05T00:39:08.103Z,4.50
2023-03-05T00:41:35.067Z,4.90
2023-03-05T00:44:02.026Z,4.53
2023-03-05T00:46:29.047Z,5.23
2023-03-05T00:48:56.467Z,4.23
2023-03-05T00:51:24.254Z,3.90
2023-03-05T00:53:51.266Z,6.67
2023-03-05T00:56:18.254Z,6.67
2023-03-05T00:58:45.222Z,5.70
2023-03-05T01:01:12.101Z,2.87
2023-03-05T01:03:39.108Z,4.30
2023-03-05T01:06:07.822Z,4.00
2023-03-05T01:08:35.124Z,1.83
2023-03-05T01:11:02.693Z,5.47
2023-03-05T01:13:29.650Z,2.43
2023-03-05T01:15:56.661Z,2.70
2023-03-05T01:18:23.626Z,2.97
2023-03-05T01:20:51.178Z,3.03
2023-03-05T01:23:18.113Z,1.13
2023-03-05T01:25:45.135Z,9.93
2023-03-05T01:28:12.271Z,3.87
2023-03-05T01:30:39.279Z,3.87
2023-03-05T01:33:06.218Z,0.87
2023-03-05T01:35:33.284Z,2.53
2023-03-05T01:38:00.264Z,3.27
2023-03-05T01:40:28.537Z,5.63
2023-03-05T01:42:59.671Z,3.90
2023-03-05T01:45:26.716Z,12.50
2023-03-05T01:47:54.123Z,5.30
2023-03-05T01:50:22.642Z,5.57
2023-03-05T01:53:01.971Z,7.57
2023-03-05T01:55:29.453Z,2.73
2023-03-05T01:58:02.434Z,2.40
2023-03-05T02:00:35.418Z,6.00
2023-03-05T02:03:04.045Z,2.40
2023-03-05T02:05:32.618Z,2.33
2023-03-05T02:08:02.581Z,7.20
2023-03-05T02:10:51.358Z,3.33
2023-03-05T02:13:27.217Z,3.87
2023-03-05T02:15:55.024Z,5.87
2023-03-05T02:18:22.252Z,2.03
2023-03-05T02:21:02.329Z,6.67
2023-03-05T02:23:32.891Z,4.97
2023-03-05T02:26:00.063Z,4.13
2023-03-05T02:28:32.745Z,5.27
2023-03-05T02:30:59.808Z,1.63
2023-03-05T02:33:26.917Z,5.53
2023-03-05T02:35:54.011Z,4.10
2023-03-05T02:38:21.221Z,3.47
2023-03-05T02:40:48.271Z,2.60
2023-03-05T02:43:16.761Z,3.47
2023-03-05T02:45:44.155Z,7.20
2023-03-05T02:48:11.429Z,3.13
2023-03-05T02:50:40.034Z,3.83
2023-03-05T02:53:08.062Z,4.03
2023-03-05T02:55:35.344Z,5.73
2023-03-05T02:58:02.628Z,3.03
2023-03-05T03:00:30.023Z,4.93
2023-03-05T03:02:57.104Z,3.60
2023-03-05T03:05:24.062Z,5.93
2023-03-05T03:07:51.185Z,4.73
2023-03-05T03:10:18.321Z,4.10
2023-03-05T03:12:45.412Z,8.87
2023-03-05T03:15:14.753Z,4.63
2023-03-05T03:17:41.671Z,4.40
2023-03-05T03:20:09.961Z,5.70
2023-03-05T03:22:36.880Z,6.03
2023-03-05T03:25:04.492Z,4.50
2023-03-05T03:27:31.602Z,3.53
2023-03-05T03:30:02.587Z,5.40
2023-03-05T03:32:30.853Z,3.60
2023-03-05T03:34:57.922Z,10.30
2023-03-05T03:37:24.990Z,2.23
2023-03-05T03:39:52.234Z,2.57
2023-03-05T03:42:19.836Z,4.00
2023-03-05T03:44:47.254Z,1.97
2023-03-05T03:47:14.210Z,6.43
2023-03-05T03:49:41.211Z,7.30
2023-03-05T03:52:08.251Z,4.10
2023-03-05T03:54:35.235Z,5.70
2023-03-05T03:57:02.112Z,9.73
2023-03-05T03:59:29.110Z,6.67
2023-03-05T04:01:56.120Z,7.10
2023-03-05T04:04:23.096Z,2.90
2023-03-05T04:06:50.056Z,3.13
2023-03-05T04:09:17.047Z,4.53
2023-03-05T04:11:43.978Z,4.93
2023-03-05T04:14:11.058Z,6.70
2023-03-05T04:16:38.087Z,8.80
2023-03-05T04:19:05.032Z,7.10
2023-03-05T04:21:31.995Z,3.83
2023-03-05T04:23:58.919Z,3.80
2023-03-05T04:26:25.897Z,5.77
2023-03-05T04:28:52.958Z,4.47
2023-03-05T04:31:20.694Z,4.57
2023-03-05T04:33:47.734Z,6.03
2023-03-05T04:36:14.619Z,3.87
2023-03-05T04:38:41.750Z,10.70
2023-03-05T04:41:08.814Z,7.33
2023-03-05T04:43:35.895Z,3.13
2023-03-05T04:46:02.830Z,8.70
2023-03-05T04:48:29.916Z,4.17
2023-03-05T04:50:57.919Z,4.17
2023-03-05T04:53:25.257Z,3.33
2023-03-05T04:55:53.696Z,4.20
2023-03-05T04:58:20.654Z,6.93
2023-03-05T05:00:47.625Z,4.63
2023-03-05T05:03:14.620Z,4.73
2023-03-05T05:05:41.595Z,4.97
2023-03-05T05:08:08.470Z,7.13
2023-03-05T05:10:35.345Z,5.00
2023-03-05T05:13:02.310Z,8.67
2023-03-05T05:15:29.241Z,3.67
2023-03-05T05:17:56.276Z,5.20
2023-03-05T05:20:23.177Z,8.37
2023-03-05T05:22:50.088Z,6.07
2023-03-05T05:25:17.078Z,3.63
2023-03-05T05:27:43.964Z,4.53
2023-03-05T05:30:11.526Z,3.27
2023-03-05T05:32:38.662Z,2.73
2023-03-05T05:35:06.128Z,2.50
2023-03-05T05:37:33.069Z,13.27
2023-03-05T05:40:00.171Z,3.03
2023-03-05T05:42:28.002Z,4.67
2023-03-05T05:44:55.529Z,5.07
2023-03-05T05:47:22.504Z,10.27
2023-03-05T05:49:49.553Z,2.97
2023-03-05T05:52:16.574Z,5.40
2023-03-05T05:54:43.614Z,7.20
2023-03-05T05:57:10.507Z,5.47
2023-03-05T05:59:38.231Z,2.07
2023-03-05T06:02:05.977Z,5.80
2023-03-05T06:04:32.882Z,6.97
2023-03-05T06:07:00.165Z,3.60
2023-03-05T06:09:27.323Z,6.20
2023-03-05T06:11:54.278Z,5.60
2023-03-05T06:14:21.214Z,6.63
2023-03-05T06:16:48.222Z,8.47
2023-03-05T06:19:15.598Z,3.77
2023-03-05T06:21:43.534Z,4.37
2023-03-05T06:24:10.658Z,6.70
2023-03-05T06:26:37.579Z,4.70
2023-03-05T06:29:04.705Z,9.33
2023-03-05T06:31:31.811Z,10.00
2023-03-05T06:35:15.730Z,4.97
2023-03-05T06:37:42.652Z,9.73
2023-03-05T06:40:10.304Z,8.47
2023-03-05T06:42:37.218Z,5.77
2023-03-05T06:45:04.656Z,2.20
2023-03-05T06:47:32.543Z,6.60
2023-03-05T06:50:03.662Z,5.73
2023-03-05T06:52:30.715Z,10.47
2023-03-05T06:54:57.694Z,3.67
2023-03-05T06:57:24.761Z,5.70
2023-03-05T06:59:52.199Z,6.70
2023-03-05T07:02:19.286Z,3.57
2023-03-05T07:04:46.354Z,6.00
2023-03-05T07:11:45.557Z,3.57
2023-03-05T07:14:12.481Z,8.07
2023-03-05T07:16:39.411Z,3.27
2023-03-05T07:19:07.446Z,5.53
2023-03-05T07:22:51.852Z,4.73
2023-03-05T07:25:21.532Z,3.50
2023-03-05T07:27:48.749Z,4.13
2023-03-05T07:30:15.716Z,3.03
2023-03-05T07:32:42.762Z,3.47
2023-03-05T07:35:09.976Z,6.07
2023-03-05T07:37:36.988Z,3.63
2023-03-05T07:40:04.697Z,5.03
2023-03-05T07:42:31.800Z,5.73
2023-03-05T07:45:10.869Z,7.67
2023-03-05T07:47:37.818Z,5.40
2023-03-05T07:50:05.166Z,3.03
2023-03-05T07:52:32.008Z,4.13
2023-03-05T07:54:59.078Z,6.30
2023-03-05T07:57:26.810Z,3.00
2023-03-05T07:59:54.036Z,7.67
2023-03-05T08:02:21.647Z,2.23
2023-03-05T08:04:48.587Z,4.10
2023-03-05T08:07:16.307Z,6.47
2023-03-05T08:09:43.485Z,3.20
2023-03-05T08:12:10.645Z,8.17
2023-03-05T08:14:38.007Z,4.20
2023-03-05T08:17:05.440Z,2.60
2023-03-05T08:19:32.976Z,3.67
2023-03-05T08:22:00.088Z,8.47
2023-03-05T08:24:29.705Z,5.00
2023-03-05T08:26:57.829Z,3.20
2023-03-05T08:29:25.421Z,6.53
2023-03-05T08:31:53.720Z,2.57
2023-03-05T08:34:21.242Z,6.20
2023-03-05T08:36:48.907Z,2.67
2023-03-05T08:39:16.125Z,3.23
2023-03-05T08:41:43.195Z,5.67
2023-03-05T08:44:10.201Z,3.70
2023-03-05T08:46:39.994Z,3.37
2023-03-05T08:49:07.545Z,5.73
2023-03-05T08:51:35.692Z,8.83
2023-03-05T08:54:06.801Z,3.80
2023-03-05T08:56:34.987Z,5.23
2023-03-05T08:59:02.676Z,7.07
2023-03-05T09:01:31.834Z,7.10
2023-03-05T09:03:59.611Z,8.97
2023-03-05T09:06:26.883Z,3.57
2023-03-05T09:08:54.596Z,4.83
2023-03-05T09:11:21.911Z,4.90
2023-03-05T09:13:48.970Z,3.73
2023-03-05T09:16:16.954Z,4.37
2023-03-05T09:18:44.031Z,11.43
2023-03-05T09:21:12.947Z,13.70
2023-03-05T09:23:39.994Z,5.57
2023-03-05T09:26:08.557Z,4.10
2023-03-05T09:28:35.801Z,9.50
2023-03-05T09:31:04.361Z,10.03
2023-03-05T09:33:32.436Z,9.43
2023-03-05T09:36:00.457Z,3.60
2023-03-05T09:38:27.981Z,10.03
2023-03-05T09:41:14.168Z,8.37
2023-03-05T09:44:09.473Z,8.88
2023-03-05T09:46:39.176Z,6.33
2023-03-05T09:49:24.410Z,7.37
2023-03-05T09:51:57.756Z,6.67
2023-03-05T09:54:44.961Z,10.40
2023-03-05T09:57:18.605Z,8.77
2023-03-05T10:00:07.576Z,7.57
2023-03-05T10:02:41.481Z,7.57
2023-03-05T10:05:08.561Z,8.47
2023-03-05T10:07:38.482Z,7.17
2023-03-05T10:10:10.159Z,8.87
2023-03-05T10:12:52.612Z,8.07
2023-03-05T10:15:26.225Z,15.47
2023-03-05T10:18:19.854Z,6.07
2023-03-05T10:21:00.462Z,10.33
2023-03-05T10:23:30.358Z,8.63
2023-03-05T10:25:58.961Z,7.57
2023-03-05T10:29:03.457Z,9.83
2023-03-05T10:31:54.228Z,11.37
2023-03-05T10:34:39.668Z,13.83
2023-03-05T10:37:17.508Z,12.07
2023-03-05T10:40:13.552Z,10.00
2023-03-05T10:43:04.084Z,9.43
2023-03-05T10:45:40.508Z,15.13
2023-03-05T10:48:16.659Z,9.27
2023-03-05T10:50:49.071Z,9.52
2023-03-05T10:53:28.690Z,10.57
2023-03-05T10:55:58.297Z,11.23
2023-03-05T10:58:25.504Z,10.20
2023-03-05T11:01:05.855Z,10.40
2023-03-05T11:03:59.824Z,12.17
2023-03-05T11:06:32.820Z,10.67
2023-03-05T11:09:18.768Z,11.27
2023-03-05T11:12:19.655Z,11.87
2023-03-05T11:15:01.955Z,10.10
2023-03-05T11:17:30.137Z,17.50
2023-03-05T11:19:57.860Z,11.47
2023-03-05T11:22:25.321Z,11.03
2023-03-05T11:25:10.676Z,12.27
2023-03-05T11:27:54.337Z,17.00
2023-03-05T11:30:25.411Z,14.97
2023-03-05T11:33:11.422Z,27.10
2023-03-05T11:35:39.974Z,26.35
2023-03-05T11:38:15.080Z,14.03
2023-03-05T11:40:42.078Z,12.00
2023-03-05T11:43:17.215Z,13.50
2023-03-05T11:45:44.381Z,13.47
2023-03-05T11:48:15.571Z,31.17
2023-03-05T11:50:42.768Z,9.20
2023-03-05T11:53:22.321Z,9.20
2023-03-05T11:55:52.137Z,15.63
2023-03-05T11:58:39.356Z,7.83
2023-03-05T12:01:20.720Z,7.00
2023-03-05T12:04:42.088Z,14.57
2023-03-05T12:07:10.678Z,15.80
2023-03-05T12:09:47.193Z,16.23
2023-03-05T12:12:30.865Z,30.13
2023-03-05T12:15:09.217Z,28.17
2023-03-05T12:17:57.680Z,21.67
2023-03-05T12:21:03.073Z,15.07
2023-03-05T12:23:30.218Z,14.53
2023-03-05T12:26:03.216Z,30.47
2023-03-05T12:28:36.381Z,16.03
2023-03-05T12:31:09.613Z,26.23
2023-03-05T12:33:41.819Z,19.13
2023-03-05T12:36:21.126Z,16.50
2023-03-05T12:38:55.394Z,10.47
2023-03-05T12:41:22.453Z,17.10
2023-03-05T12:44:07.800Z,15.30
2023-03-05T12:46:43.678Z,11.83
2023-03-05T12:49:20.352Z,15.48
2023-03-05T12:54:40.309Z,10.73
2023-03-05T12:57:17.559Z,11.40
2023-03-05T12:59:57.282Z,8.97
2023-03-05T13:02:58.095Z,17.87
2023-03-05T13:05:39.498Z,10.50
2023-03-05T13:08:26.375Z,9.97
2023-03-05T13:13:31.238Z,9.43
2023-03-05T13:15:58.363Z,9.40
2023-03-05T13:18:27.116Z,7.07
2023-03-05T13:21:21.256Z,7.63
2023-03-05T13:23:52.631Z,8.90
2023-03-05T13:26:20.803Z,12.47
2023-03-05T13:29:15.069Z,14.83
2023-03-05T13:31:49.590Z,8.30
2023-03-05T13:34:25.390Z,9.83
2023-03-05T13:37:18.487Z,8.88
2023-03-05T13:39:50.712Z,7.90
2023-03-05T13:42:28.593Z,10.13
2023-03-05T13:45:02.604Z,10.00
2023-03-05T13:47:31.910Z,6.93
2023-03-05T13:50:08.647Z,6.73
2023-03-05T13:52:37.076Z,8.77
2023-03-05T13:55:11.637Z,5.83
2023-03-05T13:57:40.250Z,7.57
2023-03-05T14:00:28.827Z,6.70
2023-03-05T14:03:24.891Z,10.57
2023-03-05T14:05:51.812Z,8.43
2023-03-05T14:08:23.143Z,6.17
2023-03-05T14:10:50.261Z,9.07
2023-03-05T14:13:35.445Z,7.60
2023-03-05T14:16:23.449Z,5.37
2023-03-05T14:18:57.904Z,8.47
2023-03-05T14:21:26.020Z,7.70
2023-03-05T14:23:56.537Z,4.50
2023-03-05T14:26:33.402Z,8.77
2023-03-05T14:29:09.969Z,5.07
2023-03-05T14:34:06.940Z,4.87
2023-03-05T14:36:34.040Z,6.03
2023-03-05T14:39:02.467Z,5.20
2023-03-05T14:41:41.401Z,3.53
2023-03-05T14:44:13.677Z,10.73
2023-03-05T14:46:41.665Z,6.67
2023-03-05T14:49:08.872Z,3.43
2023-03-05T14:51:39.225Z,6.57
2023-03-05T14:54:06.276Z,15.23
2023-03-05T14:56:33.988Z,5.83
2023-03-05T14:59:01.125Z,4.93
2023-03-05T15:01:28.698Z,6.03
2023-03-05T15:03:58.018Z,2.73
2023-03-05T15:06:33.007Z,8.10
2023-03-05T15:09:01.254Z,5.03
2023-03-05T15:11:30.094Z,4.67
2023-03-05T15:13:58.368Z,5.67
2023-03-05T15:16:25.573Z,3.67
2023-03-05T15:18:52.786Z,5.17
2023-03-05T15:21:19.811Z,5.17
2023-03-05T15:23:46.760Z,4.57
2023-03-05T15:26:14.416Z,5.13
2023-03-05T15:28:43.010Z,7.07
2023-03-05T15:31:10.168Z,4.60
2023-03-05T15:33:37.339Z,4.07
2023-03-05T15:36:04.751Z,5.30
2023-03-05T15:38:31.718Z,5.73
2023-03-05T15:41:01.956Z,6.00
2023-03-05T15:43:30.520Z,4.30
2023-03-05T15:45:57.478Z,7.80
2023-03-05T15:48:24.428Z,11.97
2023-03-05T15:50:51.353Z,4.13
2023-03-05T15:53:18.400Z,6.07
2023-03-05T15:55:46.075Z,5.37
2023-03-05T15:58:14.826Z,8.23
2023-03-05T16:00:42.089Z,8.87
2023-03-05T16:03:09.102Z,7.30
2023-03-05T16:05:36.710Z,5.20
2023-03-05T16:08:03.876Z,5.73
2023-03-05T16:10:31.103Z,8.27
2023-03-05T16:13:04.283Z,11.10
2023-03-05T16:15:31.922Z,8.33
2023-03-05T16:18:01.020Z,20.83
2023-03-05T16:20:27.998Z,16.30
2023-03-05T16:22:54.919Z,26.07
2023-03-05T16:25:22.125Z,33.13
2023-03-05T16:27:49.159Z,34.57
2023-03-05T16:30:17.031Z,11.10
2023-03-05T16:32:43.938Z,17.83
2023-03-05T16:35:12.340Z,15.33
2023-03-05T16:37:39.911Z,9.83
2023-03-05T16:40:08.433Z,10.43
2023-03-05T16:42:35.620Z,7.77
2023-03-05T16:45:03.197Z,7.60
2023-03-05T16:47:30.182Z,15.27
2023-03-05T16:49:57.230Z,34.43
2023-03-05T16:52:24.322Z,13.37
2023-03-05T16:54:51.516Z,14.90
2023-03-05T16:57:18.652Z,12.37
2023-03-05T16:59:45.664Z,23.53
2023-03-05T17:02:15.108Z,22.37
2023-03-05T17:04:42.316Z,129.80
2023-03-05T17:07:09.256Z,92.63
2023-03-05T17:09:37.307Z,37.73
2023-03-05T17:12:05.865Z,21.97
2023-03-05T17:14:33.050Z,19.93
2023-03-05T17:17:01.231Z,98.27
2023-03-05T17:19:28.289Z,69.60
2023-03-05T17:21:55.311Z,103.97
2023-03-05T17:24:22.915Z,21.67
2023-03-05T17:26:50.208Z,14.20
2023-03-05T17:29:18.952Z,58.27
2023-03-05T17:31:47.152Z,36.73
2023-03-05T17:34:15.649Z,9.13
2023-03-05T17:36:45.292Z,9.80
2023-03-05T17:39:13.113Z,15.87
2023-03-05T17:41:40.080Z,10.20
2023-03-05T17:44:07.373Z,13.70
2023-03-05T17:46:34.379Z,10.23
2023-03-05T17:49:01.428Z,20.80
2023-03-05T17:51:28.409Z,27.67
2023-03-05T17:53:55.879Z,17.87
2023-03-05T17:56:23.382Z,91.47
2023-03-05T17:58:50.915Z,63.57
2023-03-05T18:01:29.897Z,64.40
2023-03-05T18:03:57.049Z,56.50
2023-03-05T18:06:24.184Z,118.70
2023-03-05T18:08:51.298Z,93.73
2023-03-05T18:11:18.371Z,84.00
2023-03-05T18:14:11.255Z,36.07
2023-03-05T18:16:38.576Z,75.20
2023-03-05T18:19:10.026Z,37.50
2023-03-05T18:21:39.680Z,36.70
2023-03-05T18:24:07.670Z,29.87
2023-03-05T18:26:35.778Z,75.07
2023-03-05T18:29:03.554Z,50.20
2023-03-05T18:31:31.044Z,53.20
2023-03-05T18:33:58.269Z,52.07
2023-03-05T18:36:25.226Z,11.13
2023-03-05T18:38:52.232Z,6.37
2023-03-05T18:41:24.336Z,3.90
2023-03-05T18:43:54.474Z,1.43
2023-03-05T18:46:21.822Z,2.20
2023-03-05T18:48:48.940Z,2.53
2023-03-05T18:51:17.810Z,4.37
2023-03-05T18:53:45.283Z,5.90
2023-03-05T18:56:14.120Z,4.87
2023-03-05T18:58:41.092Z,6.57
2023-03-05T19:01:09.293Z,1.83
2023-03-05T19:03:36.372Z,4.20
2023-03-05T19:06:06.722Z,2.00
2023-03-05T19:08:33.859Z,5.03
2023-03-05T19:11:00.962Z,2.60
2023-03-05T19:13:40.009Z,3.23
2023-03-05T19:16:14.427Z,1.70
2023-03-05T19:18:57.136Z,3.53
2023-03-05T19:21:24.815Z,13.13
2023-03-05T19:23:51.742Z,21.00
2023-03-05T19:26:19.062Z,7.83
2023-03-05T19:28:46.118Z,4.67
2023-03-05T19:31:14.693Z,1.23
2023-03-05T19:33:42.763Z,0.70
2023-03-05T19:36:10.541Z,1.13
2023-03-05T19:38:37.862Z,1.53
2023-03-05T19:41:05.158Z,3.77
2023-03-05T19:43:35.143Z,1.63
2023-03-05T19:46:06.922Z,2.47
2023-03-05T19:48:34.596Z,6.43
2023-03-05T19:51:03.151Z,3.60
2023-03-05T19:53:30.159Z,3.70
2023-03-05T19:55:57.195Z,6.50
2023-03-05T19:58:24.195Z,8.73
2023-03-05T20:00:51.165Z,4.97
2023-03-05T20:03:18.077Z,8.27
2023-03-05T20:05:45.024Z,33.00
2023-03-05T20:08:11.943Z,17.07
2023-03-05T20:10:38.965Z,17.97
2023-03-05T20:13:05.989Z,19.07
2023-03-05T20:15:32.871Z,25.97
2023-03-05T20:17:59.942Z,12.80
2023-03-05T20:20:27.109Z,14.93
2023-03-05T20:22:54.136Z,12.60
2023-03-05T20:25:22.225Z,22.50
2023-03-05T20:27:49.235Z,5.73
2023-03-05T20:30:17.509Z,44.40
2023-03-05T20:32:45.033Z,5.30
2023-03-05T20:35:16.293Z,9.13
2023-03-05T20:37:50.022Z,15.40
2023-03-05T20:40:17.452Z,8.17
2023-03-05T20:42:44.438Z,1.77
2023-03-05T20:45:11.873Z,8.20
2023-03-05T20:47:42.260Z,2.80
2023-03-05T20:50:09.932Z,7.17
2023-03-05T20:52:37.680Z,2.67
2023-03-05T20:55:05.868Z,2.93
2023-03-05T20:57:32.830Z,2.33
2023-03-05T21:00:00.386Z,16.33
2023-03-05T21:02:30.394Z,2.13
2023-03-05T21:04:57.720Z,3.63
2023-03-05T21:07:28.114Z,2.53
2023-03-05T21:09:55.226Z,0.97
2023-03-05T21:12:22.216Z,1.47
2023-03-05T21:14:49.169Z,1.23
2023-03-05T21:17:17.803Z,4.13
2023-03-05T21:19:44.708Z,4.33
2023-03-05T21:22:11.679Z,2.00
2023-03-05T21:24:53.850Z,2.53
2023-03-05T21:27:20.805Z,4.83
2023-03-05T21:29:47.817Z,2.90
2023-03-05T21:32:15.275Z,3.90
2023-03-05T21:34:43.551Z,2.37
2023-03-05T21:37:10.757Z,3.67
2023-03-05T21:39:37.739Z,4.63
2023-03-05T21:42:05.440Z,3.77
2023-03-05T21:44:32.380Z,6.03
2023-03-05T21:46:59.292Z,1.80
2023-03-05T21:49:26.637Z,7.57
2023-03-05T21:52:08.947Z,4.83
2023-03-05T21:54:37.042Z,2.77
2023-03-05T21:57:04.521Z,4.57
2023-03-05T21:59:31.756Z,10.17
2023-03-05T22:01:58.836Z,16.17
2023-03-05T22:04:26.013Z,8.80
2023-03-05T22:06:53.607Z,5.20
2023-03-05T22:09:21.304Z,4.37
2023-03-05T22:11:48.962Z,7.57
2023-03-05T22:14:17.695Z,5.60
2023-03-05T22:16:45.353Z,7.10
2023-03-05T22:19:12.792Z,3.93
2023-03-05T22:21:40.004Z,4.97
2023-03-05T22:24:07.493Z,9.93
2023-03-05T22:26:36.365Z,29.30
2023-03-05T22:29:03.492Z,20.27
2023-03-05T22:31:30.861Z,22.07
2023-03-05T22:33:58.016Z,47.30
2023-03-05T22:36:25.029Z,29.13
2023-03-05T22:38:52.157Z,18.07
2023-03-05T22:41:22.456Z,14.13
2023-03-05T22:43:49.837Z,18.40
2023-03-05T22:46:24.523Z,19.63
2023-03-05T22:48:53.269Z,9.60
2023-03-05T22:51:21.714Z,16.43
2023-03-05T22:53:49.723Z,12.87
2023-03-05T22:56:18.929Z,4.80
2023-03-05T22:58:46.808Z,11.53
2023-03-05T23:01:19.901Z,8.13
2023-03-05T23:03:53.337Z,21.77
2023-03-05T23:06:21.602Z,12.67
2023-03-05T23:08:49.627Z,12.60
2023-03-05T23:11:17.139Z,11.33
2023-03-05T23:13:44.245Z,16.53
2023-03-05T23:16:11.289Z,14.50
2023-03-05T23:18:38.369Z,10.97
2023-03-05T23:21:06.237Z,11.70
2023-03-05T23:23:33.309Z,10.27
2023-03-05T23:26:00.720Z,11.67
2023-03-05T23:28:27.703Z,8.37
2023-03-05T23:30:54.624Z,3.23
2023-03-05T23:33:22.633Z,7.67
2023-03-05T23:35:54.384Z,9.43
2023-03-05T23:38:26.173Z,4.20
2023-03-05T23:41:01.403Z,9.63
2023-03-05T23:43:28.673Z,6.97
2023-03-05T23:45:56.064Z,4.43
2023-03-05T23:48:24.000Z,9.37
2023-03-05T23:50:50.962Z,5.30
2023-03-05T23:53:23.417Z,5.50
2023-03-05T23:55:50.799Z,4.47
2023-03-05T23:58:19.017Z,2.77
